createdAt,value
2022-08-23T00:02:27.761Z,0.63
2022-08-23T00:05:08.144Z,0.98
2022-08-23T00:07:41.805Z,0.82
2022-08-23T00:10:12.115Z,1.00
2022-08-23T00:12:40.394Z,0.80
2022-08-23T00:15:09.670Z,0.93
2022-08-23T00:17:37.806Z,0.90
2022-08-23T00:20:12.244Z,0.70
2022-08-23T00:22:40.188Z,1.10
2022-08-23T00:25:10.695Z,0.80
2022-08-23T00:27:38.477Z,0.77
2022-08-23T00:30:08.464Z,1.00
2022-08-23T00:32:38.494Z,0.75
2022-08-23T00:35:07.504Z,0.70
2022-08-23T00:37:36.492Z,0.90
2022-08-23T00:40:07.303Z,0.85
2022-08-23T00:42:59.356Z,0.90
2022-08-23T00:45:55.422Z,1.50
2022-08-23T00:48:23.194Z,1.23
2022-08-23T00:51:09.092Z,1.10
2022-08-23T00:53:57.936Z,1.20
2022-08-23T00:56:42.276Z,1.20
2022-08-23T00:59:21.709Z,1.48
2022-08-23T01:01:53.643Z,1.17
2022-08-23T01:04:25.511Z,0.98
2022-08-23T01:07:08.517Z,1.83
2022-08-23T01:09:40.146Z,1.15
2022-08-23T01:12:30.403Z,1.40
2022-08-23T01:15:07.031Z,1.40
2022-08-23T01:17:45.568Z,1.55
2022-08-23T01:20:19.603Z,1.00
2022-08-23T01:23:02.388Z,2.80
2022-08-23T01:25:33.219Z,1.35
2022-08-23T01:28:01.357Z,1.00
2022-08-23T01:30:32.741Z,1.23
2022-08-23T01:33:05.045Z,1.20
2022-08-23T01:35:49.807Z,1.10
2022-08-23T01:38:17.281Z,1.00
2022-08-23T01:40:46.460Z,1.50
2022-08-23T01:43:14.077Z,1.65
2022-08-23T01:45:43.239Z,1.80
2022-08-23T01:48:13.846Z,1.15
2022-08-23T01:50:41.553Z,0.95
2022-08-23T01:53:09.051Z,1.20
2022-08-23T01:55:37.293Z,1.40
2022-08-23T01:58:08.151Z,1.38
2022-08-23T02:00:42.144Z,1.52
2022-08-23T02:03:12.593Z,1.90
2022-08-23T02:05:42.875Z,1.40
2022-08-23T02:08:30.879Z,1.48
2022-08-23T02:10:59.936Z,1.80
2022-08-23T02:13:27.395Z,1.50
2022-08-23T02:15:58.502Z,1.70
2022-08-23T02:18:26.280Z,1.33
2022-08-23T02:20:53.754Z,1.50
2022-08-23T02:23:22.786Z,1.60
2022-08-23T02:25:54.430Z,1.70
2022-08-23T02:28:24.176Z,1.60
2022-08-23T02:30:52.418Z,1.70
2022-08-23T02:33:20.011Z,1.95
2022-08-23T02:35:48.268Z,2.17
2022-08-23T02:38:18.327Z,1.80
2022-08-23T02:40:46.874Z,3.88
2022-08-23T02:43:20.998Z,2.10
2022-08-23T02:45:50.468Z,2.22
2022-08-23T02:48:17.978Z,1.80
2022-08-23T02:51:00.473Z,2.20
2022-08-23T02:53:27.776Z,2.28
2022-08-23T02:55:55.203Z,2.05
2022-08-23T02:58:23.468Z,2.65
2022-08-23T03:00:51.432Z,2.00
2022-08-23T03:03:22.435Z,2.30
2022-08-23T03:05:50.668Z,1.95
2022-08-23T03:08:20.612Z,2.55
2022-08-23T03:10:52.376Z,2.67
2022-08-23T03:13:20.970Z,3.28
2022-08-23T03:15:50.059Z,2.58
2022-08-23T03:18:17.573Z,3.30
2022-08-23T03:20:45.034Z,1.92
2022-08-23T03:23:13.774Z,2.85
2022-08-23T03:25:41.221Z,2.53
2022-08-23T03:28:20.416Z,2.53
2022-08-23T03:30:47.688Z,2.58
2022-08-23T03:33:14.902Z,2.50
2022-08-23T03:35:43.019Z,2.60
2022-08-23T03:38:14.024Z,2.60
2022-08-23T03:40:43.673Z,2.15
2022-08-23T03:43:11.787Z,2.50
2022-08-23T03:45:39.112Z,2.33
2022-08-23T03:48:07.459Z,2.20
2022-08-23T03:50:36.206Z,2.20
2022-08-23T03:53:03.918Z,2.80
2022-08-23T03:55:31.562Z,2.58
2022-08-23T03:58:00.981Z,2.92
2022-08-23T04:00:28.463Z,3.10
2022-08-23T04:02:55.997Z,2.90
2022-08-23T04:05:25.597Z,2.53
2022-08-23T04:08:10.746Z,2.97
2022-08-23T04:10:41.485Z,3.10
2022-08-23T04:13:10.953Z,3.13
2022-08-23T04:15:38.819Z,3.13
2022-08-23T04:18:09.367Z,2.85
2022-08-23T04:20:38.100Z,3.75
2022-08-23T04:23:06.167Z,3.30
2022-08-23T04:25:45.754Z,3.08
2022-08-23T04:28:13.353Z,3.40
2022-08-23T04:30:40.786Z,3.85
2022-08-23T04:33:12.498Z,3.58
2022-08-23T04:35:41.586Z,3.95
2022-08-23T04:38:24.314Z,3.20
2022-08-23T04:41:13.476Z,2.97
2022-08-23T04:43:44.088Z,3.17
2022-08-23T04:46:15.562Z,3.00
2022-08-23T04:48:46.277Z,2.92
2022-08-23T04:51:14.915Z,3.25
2022-08-23T04:53:43.746Z,3.13
2022-08-23T04:56:31.157Z,3.45
2022-08-23T04:58:58.725Z,3.55
2022-08-23T05:01:26.813Z,3.67
2022-08-23T05:03:55.573Z,3.38
2022-08-23T05:06:25.305Z,3.70
2022-08-23T05:08:53.180Z,3.03
2022-08-23T05:11:20.762Z,3.80
2022-08-23T05:13:49.742Z,3.92
2022-08-23T05:16:18.037Z,3.30
2022-08-23T05:18:54.486Z,3.42
2022-08-23T05:21:24.601Z,3.50
2022-08-23T05:23:54.571Z,3.90
2022-08-23T05:26:25.078Z,3.80
2022-08-23T05:28:52.387Z,4.00
2022-08-23T05:31:26.128Z,3.70
2022-08-23T05:33:56.790Z,4.95
2022-08-23T05:36:30.968Z,4.43
2022-08-23T05:38:58.682Z,3.78
2022-08-23T05:41:31.154Z,4.03
2022-08-23T05:44:09.038Z,3.70
2022-08-23T05:46:37.822Z,4.75
2022-08-23T05:49:28.455Z,4.28
2022-08-23T05:51:56.861Z,3.22
2022-08-23T05:54:27.948Z,3.58
2022-08-23T05:57:11.733Z,3.53
2022-08-23T05:59:40.745Z,4.13
2022-08-23T06:02:08.035Z,3.03
2022-08-23T06:04:36.178Z,3.03
2022-08-23T06:07:03.953Z,2.70
2022-08-23T06:09:31.226Z,2.38
2022-08-23T06:11:59.453Z,2.65
2022-08-23T06:14:26.794Z,2.65
2022-08-23T06:16:56.207Z,3.13
2022-08-23T06:19:27.181Z,3.38
2022-08-23T06:22:12.846Z,3.00
2022-08-23T06:24:42.983Z,2.72
2022-08-23T06:27:16.174Z,3.00
2022-08-23T06:29:44.564Z,2.67
2022-08-23T06:32:35.289Z,2.67
2022-08-23T06:35:39.451Z,2.70
2022-08-23T06:38:15.415Z,2.88
2022-08-23T06:41:06.049Z,2.50
2022-08-23T06:43:43.161Z,2.78
2022-08-23T06:46:30.407Z,3.17
2022-08-23T06:48:58.739Z,2.28
2022-08-23T06:51:29.687Z,3.10
2022-08-23T06:54:08.421Z,3.03
2022-08-23T06:56:55.555Z,2.90
2022-08-23T06:59:29.011Z,2.67
2022-08-23T07:02:14.817Z,2.60
2022-08-23T07:04:58.397Z,3.00
2022-08-23T07:07:41.353Z,2.83
2022-08-23T07:10:14.486Z,3.28
2022-08-23T07:12:43.005Z,2.80
2022-08-23T07:15:14.154Z,3.65
2022-08-23T07:17:44.925Z,3.42
2022-08-23T07:20:13.995Z,3.83
2022-08-23T07:22:44.658Z,3.10
2022-08-23T07:25:13.003Z,3.50
2022-08-23T07:27:41.968Z,4.03
2022-08-23T07:30:10.543Z,3.10
2022-08-23T07:32:40.724Z,3.58
2022-08-23T07:35:22.507Z,4.35
2022-08-23T07:37:52.879Z,3.47
2022-08-23T07:40:21.210Z,3.92
2022-08-23T07:42:52.677Z,3.85
2022-08-23T07:45:23.039Z,4.03
2022-08-23T07:47:54.424Z,3.55
2022-08-23T07:50:24.543Z,4.47
2022-08-23T07:52:59.389Z,4.47
2022-08-23T07:55:26.834Z,4.13
2022-08-23T07:58:04.026Z,4.13
2022-08-23T08:00:36.836Z,4.65
2022-08-23T08:03:26.794Z,4.85
2022-08-23T08:06:13.206Z,4.72
2022-08-23T08:08:42.906Z,5.03
2022-08-23T08:11:13.163Z,4.57
2022-08-23T08:13:44.281Z,4.38
2022-08-23T08:16:22.053Z,5.00
2022-08-23T08:18:50.004Z,4.28
2022-08-23T08:21:41.884Z,5.28
2022-08-23T08:24:20.782Z,5.25
2022-08-23T08:26:52.286Z,5.40
2022-08-23T08:29:20.438Z,4.93
2022-08-23T08:31:53.622Z,5.03
2022-08-23T08:34:21.733Z,4.88
2022-08-23T08:36:53.937Z,4.63
2022-08-23T08:39:29.487Z,5.22
2022-08-23T08:42:12.132Z,5.53
2022-08-23T08:44:55.453Z,5.28
2022-08-23T08:47:41.191Z,5.22
2022-08-23T08:50:53.077Z,4.70
2022-08-23T08:53:34.413Z,5.13
2022-08-23T08:56:25.188Z,6.00
2022-08-23T08:59:21.879Z,5.68
2022-08-23T09:01:49.999Z,5.97
2022-08-23T09:04:25.385Z,5.95
2022-08-23T09:07:08.119Z,7.03
2022-08-23T09:09:53.822Z,5.85
2022-08-23T09:12:31.506Z,6.55
2022-08-23T09:15:23.756Z,6.57
2022-08-23T09:17:57.966Z,6.47
2022-08-23T09:20:32.879Z,6.45
2022-08-23T09:23:06.736Z,6.70
2022-08-23T09:25:35.575Z,7.22
2022-08-23T09:28:09.342Z,7.15
2022-08-23T09:30:50.913Z,6.90
2022-08-23T09:33:46.767Z,7.10
2022-08-23T09:36:34.173Z,5.85
2022-08-23T09:39:05.935Z,8.90
2022-08-23T09:41:41.674Z,6.15
2022-08-23T09:44:16.914Z,6.10
2022-08-23T09:46:44.413Z,5.82
2022-08-23T09:49:27.499Z,6.25
2022-08-23T09:52:11.171Z,6.28
2022-08-23T09:54:47.439Z,6.53
2022-08-23T09:57:27.906Z,5.82
2022-08-23T10:00:00.810Z,6.22
2022-08-23T10:02:33.573Z,6.70
2022-08-23T10:05:15.753Z,6.50
2022-08-23T10:07:53.570Z,7.07
2022-08-23T10:10:43.799Z,6.80
2022-08-23T10:13:18.649Z,6.75
2022-08-23T10:16:26.113Z,6.43
2022-08-23T10:19:23.544Z,6.00
2022-08-23T10:22:08.500Z,5.88
2022-08-23T10:25:12.531Z,6.32
2022-08-23T10:28:39.352Z,6.60
2022-08-23T10:31:41.394Z,6.18
2022-08-23T10:34:50.367Z,6.57
2022-08-23T10:37:56.239Z,5.10
2022-08-23T10:40:43.382Z,6.05
2022-08-23T10:43:15.295Z,5.57
2022-08-23T10:45:46.978Z,5.38
2022-08-23T10:48:33.322Z,6.38
2022-08-23T10:51:18.779Z,5.82
2022-08-23T10:54:04.232Z,5.28
2022-08-23T10:56:31.964Z,5.30
2022-08-23T10:59:14.649Z,6.07
2022-08-23T11:02:09.670Z,4.93
2022-08-23T11:04:49.113Z,6.63
2022-08-23T11:07:42.966Z,10.55
2022-08-23T11:10:29.953Z,8.73
2022-08-23T11:12:58.790Z,5.20
2022-08-23T11:15:33.376Z,5.65
2022-08-23T11:18:04.079Z,4.82
2022-08-23T11:20:52.188Z,5.60
2022-08-23T11:23:49.346Z,5.32
2022-08-23T11:26:23.026Z,4.68
2022-08-23T11:28:51.879Z,5.13
2022-08-23T11:31:34.919Z,5.00
2022-08-23T11:34:11.114Z,5.53
2022-08-23T11:36:39.204Z,5.07
2022-08-23T11:39:12.946Z,4.93
2022-08-23T11:41:56.143Z,5.15
2022-08-23T11:44:38.350Z,5.05
2022-08-23T11:47:11.285Z,5.35
2022-08-23T11:49:51.386Z,5.18
2022-08-23T11:52:47.366Z,6.45
2022-08-23T11:55:46.479Z,4.75
2022-08-23T11:58:44.619Z,5.30
2022-08-23T12:01:15.585Z,5.22
2022-08-23T12:03:52.562Z,5.20
2022-08-23T12:06:21.467Z,5.40
2022-08-23T12:09:01.922Z,5.53
2022-08-23T12:11:55.107Z,6.13
2022-08-23T12:14:31.199Z,6.25
2022-08-23T12:17:04.493Z,5.70
2022-08-23T12:19:40.538Z,5.25
2022-08-23T12:22:13.621Z,5.70
2022-08-23T12:24:54.333Z,4.78
2022-08-23T12:27:41.405Z,5.10
2022-08-23T12:30:46.146Z,5.50
2022-08-23T12:33:39.900Z,5.22
2022-08-23T12:36:22.969Z,5.45
2022-08-23T12:39:09.055Z,4.55
2022-08-23T12:41:54.207Z,5.70
2022-08-23T12:44:24.702Z,5.65
2022-08-23T12:46:52.598Z,4.78
2022-08-23T12:49:30.547Z,5.90
2022-08-23T12:52:01.886Z,6.57
2022-08-23T12:54:41.650Z,5.72
2022-08-23T12:57:15.950Z,6.30
2022-08-23T13:00:17.034Z,5.32
2022-08-23T13:03:08.555Z,5.80
2022-08-23T13:05:43.702Z,6.63
2022-08-23T13:08:34.380Z,6.45
2022-08-23T13:11:08.098Z,6.35
2022-08-23T13:13:39.733Z,7.00
2022-08-23T13:19:10.347Z,6.55
2022-08-23T13:21:40.071Z,6.97
2022-08-23T13:24:39.146Z,6.38
2022-08-23T13:27:14.702Z,6.22
2022-08-23T13:29:54.624Z,7.00
2022-08-23T13:32:49.213Z,6.50
2022-08-23T13:35:24.199Z,7.97
2022-08-23T13:37:55.192Z,8.23
2022-08-23T13:40:30.491Z,7.25
2022-08-23T13:43:02.357Z,6.80
2022-08-23T13:45:35.619Z,6.45
2022-08-23T13:48:05.473Z,7.80
2022-08-23T13:50:36.282Z,6.80
2022-08-23T13:53:20.857Z,6.80
2022-08-23T13:55:54.464Z,6.65
2022-08-23T13:58:39.890Z,6.80
2022-08-23T14:01:17.313Z,6.50
2022-08-23T14:03:44.602Z,6.43
2022-08-23T14:06:12.252Z,6.72
2022-08-23T14:08:39.492Z,7.07
2022-08-23T14:11:07.090Z,6.50
2022-08-23T14:13:36.793Z,7.03
2022-08-23T14:21:43.029Z,7.05
2022-08-23T14:24:10.590Z,6.43
2022-08-23T14:26:38.437Z,7.38
2022-08-23T14:29:22.357Z,6.95
2022-08-23T14:31:51.925Z,7.57
2022-08-23T14:34:20.332Z,6.93
2022-08-23T14:39:35.816Z,6.85
2022-08-23T14:42:04.353Z,7.63
2022-08-23T14:44:35.708Z,6.97
2022-08-23T14:47:05.916Z,6.93
2022-08-23T14:49:34.021Z,7.43
2022-08-23T14:52:02.006Z,6.68
2022-08-23T14:54:29.646Z,7.20
2022-08-23T14:56:57.138Z,7.20
2022-08-23T14:59:24.529Z,6.38
2022-08-23T15:01:53.752Z,7.32
2022-08-23T15:04:23.301Z,6.95
2022-08-23T15:09:39.007Z,7.53
2022-08-23T15:12:57.336Z,6.50
2022-08-23T15:14:56.989Z,6.88
2022-08-23T15:17:30.306Z,7.37
2022-08-23T15:19:58.985Z,7.60
2022-08-23T15:22:26.260Z,6.57
2022-08-23T15:24:53.493Z,6.65
2022-08-23T15:27:22.413Z,6.00
2022-08-23T15:29:49.807Z,6.50
2022-08-23T15:32:22.214Z,6.15
2022-08-23T15:34:50.693Z,6.80
2022-08-23T15:37:20.827Z,6.82
2022-08-23T15:39:48.476Z,6.45
2022-08-23T15:42:20.560Z,6.85
2022-08-23T15:44:49.115Z,6.43
2022-08-23T15:47:27.945Z,6.70
2022-08-23T15:49:55.959Z,6.85
2022-08-23T15:52:23.418Z,6.18
2022-08-23T15:54:50.790Z,6.47
2022-08-23T15:57:23.764Z,7.20
2022-08-23T15:59:57.314Z,6.43
2022-08-23T16:02:24.830Z,7.55
2022-08-23T16:04:52.075Z,7.18
2022-08-23T16:07:19.538Z,7.53
2022-08-23T16:09:47.274Z,7.30
2022-08-23T16:12:14.585Z,7.18
2022-08-23T16:14:42.075Z,6.82
2022-08-23T16:17:09.976Z,7.28
2022-08-23T16:19:37.147Z,6.45
2022-08-23T16:22:05.143Z,6.68
2022-08-23T16:24:32.454Z,6.70
2022-08-23T16:26:59.667Z,7.57
2022-08-23T16:29:32.001Z,6.85
2022-08-23T16:31:59.285Z,6.57
2022-08-23T16:34:26.932Z,6.55
2022-08-23T16:37:02.075Z,7.43
2022-08-23T16:39:29.398Z,7.35
2022-08-23T16:41:56.908Z,7.03
2022-08-23T16:44:24.517Z,7.57
2022-08-23T16:46:52.076Z,6.22
2022-08-23T16:49:19.921Z,6.70
2022-08-23T16:51:47.526Z,7.47
2022-08-23T16:54:16.076Z,6.20
2022-08-23T16:56:43.618Z,6.47
2022-08-23T16:59:12.711Z,7.35
2022-08-23T17:02:10.431Z,6.85
2022-08-23T17:04:38.530Z,6.53
2022-08-23T17:07:06.468Z,7.15
2022-08-23T17:09:33.677Z,6.90
2022-08-23T17:12:03.242Z,6.70
2022-08-23T17:14:30.438Z,6.60
2022-08-23T17:16:57.687Z,7.18
2022-08-23T17:19:25.109Z,6.50
2022-08-23T17:21:54.339Z,6.60
2022-08-23T17:24:21.589Z,6.95
2022-08-23T17:26:49.785Z,7.07
2022-08-23T17:29:17.158Z,6.32
2022-08-23T17:31:47.772Z,5.78
2022-08-23T17:34:15.317Z,6.10
2022-08-23T17:36:50.161Z,5.97
2022-08-23T17:39:20.767Z,6.82
2022-08-23T17:41:48.556Z,7.05
2022-08-23T17:44:16.058Z,6.90
2022-08-23T17:46:45.937Z,7.50
2022-08-23T17:49:15.478Z,7.65
2022-08-23T17:51:44.317Z,7.95
2022-08-23T17:54:16.106Z,7.72
2022-08-23T17:56:49.864Z,9.30
2022-08-23T17:59:20.124Z,9.07
2022-08-23T18:01:47.702Z,8.43
2022-08-23T18:04:14.975Z,8.68
2022-08-23T18:06:42.436Z,8.30
2022-08-23T18:09:09.696Z,9.20
2022-08-23T18:11:37.654Z,8.32
2022-08-23T18:14:05.214Z,8.55
2022-08-23T18:16:35.606Z,9.77
2022-08-23T18:19:11.212Z,9.02
2022-08-23T18:21:42.505Z,8.98
2022-08-23T18:24:10.468Z,7.85
2022-08-23T18:26:56.820Z,8.45
2022-08-23T18:29:24.904Z,7.63
2022-08-23T18:31:52.285Z,8.13
2022-08-23T18:34:20.153Z,8.40
2022-08-23T18:36:48.032Z,7.25
2022-08-23T18:39:16.113Z,7.82
2022-08-23T18:41:43.453Z,7.28
2022-08-23T18:44:11.887Z,7.60
2022-08-23T18:46:42.556Z,7.75
2022-08-23T18:49:11.690Z,7.85
2022-08-23T18:51:40.592Z,7.25
2022-08-23T18:54:08.598Z,7.03
2022-08-23T18:56:35.881Z,7.95
2022-08-23T18:59:04.550Z,7.60
2022-08-23T19:01:35.898Z,7.35
2022-08-23T19:04:04.490Z,8.60
2022-08-23T19:06:32.109Z,8.23
2022-08-23T19:09:01.083Z,7.60
2022-08-23T19:11:29.330Z,9.13
2022-08-23T19:13:58.549Z,8.15
2022-08-23T19:16:26.776Z,8.15
2022-08-23T19:18:55.262Z,8.20
2022-08-23T19:21:25.205Z,8.45
2022-08-23T19:23:55.513Z,7.63
2022-08-23T19:26:26.324Z,8.02
2022-08-23T19:28:53.748Z,8.65
2022-08-23T19:31:20.986Z,8.55
2022-08-23T19:33:49.217Z,8.88
2022-08-23T19:36:42.689Z,8.25
2022-08-23T19:39:06.095Z,8.00
2022-08-23T19:41:33.940Z,8.25
2022-08-23T19:44:01.164Z,9.25
2022-08-23T19:46:28.652Z,7.43
2022-08-23T19:48:56.117Z,8.63
2022-08-23T19:51:24.698Z,7.93
2022-08-23T19:54:04.941Z,8.75
2022-08-23T19:56:48.707Z,9.63
2022-08-23T19:59:21.327Z,8.70
2022-08-23T20:01:49.905Z,7.88
2022-08-23T20:04:18.477Z,8.70
2022-08-23T20:06:46.453Z,8.20
2022-08-23T20:09:13.899Z,8.13
2022-08-23T20:11:42.094Z,7.68
2022-08-23T20:14:10.130Z,8.32
2022-08-23T20:16:39.024Z,7.82
2022-08-23T20:19:10.060Z,8.73
2022-08-23T20:21:38.456Z,8.52
2022-08-23T20:24:09.077Z,10.10
2022-08-23T20:26:41.150Z,8.35
2022-08-23T20:29:14.351Z,8.52
2022-08-23T20:31:51.371Z,8.15
2022-08-23T20:34:19.413Z,9.23
2022-08-23T20:36:47.275Z,8.77
2022-08-23T20:39:17.450Z,8.45
2022-08-23T20:41:48.370Z,8.93
2022-08-23T20:44:15.629Z,8.45
2022-08-23T20:46:47.268Z,9.43
2022-08-23T20:49:17.637Z,8.32
2022-08-23T20:51:45.430Z,8.70
2022-08-23T20:54:13.012Z,9.13
2022-08-23T20:56:40.874Z,9.25
2022-08-23T20:59:08.747Z,8.85
2022-08-23T21:01:36.600Z,9.65
2022-08-23T21:04:06.856Z,10.55
2022-08-23T21:06:48.474Z,8.75
2022-08-23T21:09:19.745Z,8.05
2022-08-23T21:11:48.190Z,7.72
2022-08-23T21:14:17.082Z,64.20
2022-08-23T21:16:46.164Z,21.40
2022-08-23T21:19:14.249Z,8.30
2022-08-23T21:21:42.143Z,8.30
2022-08-23T21:24:11.339Z,8.55
2022-08-23T21:26:39.616Z,8.65
2022-08-23T21:29:08.549Z,8.73
2022-08-23T21:31:36.404Z,10.18
2022-08-23T21:34:04.426Z,9.55
2022-08-23T21:36:32.081Z,9.15
2022-08-23T21:38:59.617Z,9.13
2022-08-23T21:41:39.173Z,8.57
2022-08-23T21:44:10.197Z,9.38
2022-08-23T21:46:37.701Z,8.82
2022-08-23T21:49:05.724Z,9.18
2022-08-23T21:51:35.020Z,9.05
2022-08-23T21:54:03.399Z,8.45
2022-08-23T21:56:31.242Z,9.35
2022-08-23T21:58:59.872Z,8.98
2022-08-23T22:01:27.639Z,9.52
2022-08-23T22:03:57.234Z,8.73
2022-08-23T22:06:24.974Z,9.65
2022-08-23T22:08:52.184Z,9.02
2022-08-23T22:11:20.441Z,9.43
2022-08-23T22:13:47.874Z,9.82
2022-08-23T22:16:15.220Z,9.75
2022-08-23T22:18:42.986Z,8.60
2022-08-23T22:21:10.735Z,9.63
2022-08-23T22:23:42.020Z,8.45
2022-08-23T22:28:37.026Z,10.18
2022-08-23T22:31:07.179Z,10.70
2022-08-23T22:33:35.252Z,10.07
2022-08-23T22:36:09.721Z,10.30
2022-08-23T22:38:38.423Z,10.65
2022-08-23T22:41:06.405Z,10.75
2022-08-23T22:43:33.698Z,10.63
2022-08-23T22:46:03.506Z,10.52
2022-08-23T22:48:32.838Z,10.52
2022-08-23T22:51:06.307Z,11.48
2022-08-23T22:53:36.055Z,9.95
2022-08-23T22:56:05.396Z,10.13
2022-08-23T22:58:33.454Z,10.70
2022-08-23T23:01:02.650Z,10.75
2022-08-23T23:03:34.708Z,10.55
2022-08-23T23:06:03.274Z,10.55
2022-08-23T23:08:30.679Z,10.75
2022-08-23T23:11:01.017Z,10.52
2022-08-23T23:13:31.550Z,12.30
2022-08-23T23:16:03.295Z,11.03
2022-08-23T23:18:31.238Z,10.52
2022-08-23T23:21:01.232Z,12.20
2022-08-23T23:23:30.479Z,11.48
2022-08-23T23:25:58.869Z,10.75
2022-08-23T23:28:26.174Z,27.75
2022-08-23T23:30:54.688Z,15.13
2022-08-23T23:33:22.641Z,11.77
2022-08-23T23:35:51.864Z,13.93
2022-08-23T23:38:19.337Z,12.77
2022-08-23T23:40:46.879Z,12.50
2022-08-23T23:43:14.135Z,12.32
2022-08-23T23:45:42.353Z,13.70
2022-08-23T23:48:10.330Z,13.55
2022-08-23T23:50:42.593Z,14.20
2022-08-23T23:53:12.920Z,14.25
2022-08-23T23:55:40.464Z,13.80
2022-08-23T23:58:07.732Z,13.23
